Repülésmeteorológia

METAR


Utolsó módosítás időpontja: 2020-03-30 09:50:00
999
SAHU41 HASM 301000
METAR LHSM 300945Z AUTO 01017KT 9999 FEW040 BKN099 04/M06 Q1022

TAF


Utolsó módosítás időpontja: 2020-03-30 08:05:00
995
FCHU99 LHSM 300800
TAF LHSM 300800Z NIL